Skip Navigation LinksHome page > Weather > Current weather Skip Navigation Links

Current Weather

Ndjamena, Chad

For information only: do not use for flight planning or navigation.
Latest weather
Observation time Friday, August 28, 2015 5:00 AM WAT
Local time Friday, August 28, 2015 6:05 AM WAT
Flight conditions Visual Meteorological Conditions
Winds
Wind direction East-Southeast (120°)
Wind speed 3 mph
Visibility 6.2 mi.
Sky condition
Ceiling unlimited
Sky clear
Temperature 79°F
Dewpoint 75°F
Altimeter 29.83 in.Hg
Derived measurements
Relative humidity 89%
Heat index 79°F
Density altitude 2075 ft.
Remarks
Ceiling and visibility OK.
No significant changes expected in the next two hours.
METAR FTTJ 280400Z 12003KT CAVOK 26/24 Q1010 NOSIG

Settings

Location code

InnerDrive.Weather 4.0.5567.0 Release CLR 4.0.30319.34014
Copyright ©2015 Inner Drive Technology. All rights reserved. Portions Copyright ©1986-2015 David Braverman.

Find weather

Site navigation


Skip Navigation Links

Place info

Page info

PayPal - The safer, easier way to pay online!

Return home.

Copyright ©2015 Inner Drive Technology. Purveyors of fine, hand-crafted computer software. Page printed 2015-08-28T05:05:11 UTC.